sensor_id;sensor_type;location;lat;lon;timestamp;pressure;altitude;pressure_sealevel;temperature;humidity
76827;BME280;65788;52.284;20.890;2023-02-13T00:00:37;102065.66;;;17.32;33.81
76827;BME280;65788;52.284;20.890;2023-02-13T00:03:20;102058.30;;;17.32;33.82
76827;BME280;65788;52.284;20.890;2023-02-13T00:05:47;102066.98;;;17.32;33.84
76827;BME280;65788;52.284;20.890;2023-02-13T00:08:15;102068.89;;;17.34;33.80
76827;BME280;65788;52.284;20.890;2023-02-13T00:10:42;102067.09;;;17.32;33.85
76827;BME280;65788;52.284;20.890;2023-02-13T00:13:09;102064.59;;;17.31;33.88
76827;BME280;65788;52.284;20.890;2023-02-13T00:15:36;102058.46;;;17.28;33.96
76827;BME280;65788;52.284;20.890;2023-02-13T00:18:03;102055.52;;;17.30;33.94
76827;BME280;65788;52.284;20.890;2023-02-13T00:20:31;102056.88;;;17.28;33.97
76827;BME280;65788;52.284;20.890;2023-02-13T00:22:58;102053.86;;;17.28;33.99
76827;BME280;65788;52.284;20.890;2023-02-13T00:25:26;102047.49;;;17.29;33.96
76827;BME280;65788;52.284;20.890;2023-02-13T00:27:54;102050.44;;;17.29;34.00
76827;BME280;65788;52.284;20.890;2023-02-13T00:30:21;102048.46;;;17.29;34.00
76827;BME280;65788;52.284;20.890;2023-02-13T00:32:48;102040.54;;;17.27;34.03
76827;BME280;65788;52.284;20.890;2023-02-13T00:35:16;102047.88;;;17.28;34.05
76827;BME280;65788;52.284;20.890;2023-02-13T00:37:43;102047.39;;;17.27;34.07
76827;BME280;65788;52.284;20.890;2023-02-13T00:40:11;102043.25;;;17.29;34.05
76827;BME280;65788;52.284;20.890;2023-02-13T00:42:39;102041.55;;;17.28;34.08
76827;BME280;65788;52.284;20.890;2023-02-13T00:45:07;102045.66;;;17.26;34.13
76827;BME280;65788;52.284;20.890;2023-02-13T00:47:34;102042.40;;;17.25;34.13
76827;BME280;65788;52.284;20.890;2023-02-13T00:50:01;102044.59;;;17.27;34.11
76827;BME280;65788;52.284;20.890;2023-02-13T00:52:28;102042.82;;;17.26;34.13
76827;BME280;65788;52.284;20.890;2023-02-13T00:54:55;102046.06;;;17.24;34.18
76827;BME280;65788;52.284;20.890;2023-02-13T00:57:22;102048.05;;;17.26;34.19
76827;BME280;65788;52.284;20.890;2023-02-13T00:59:50;102046.04;;;17.26;34.18
76827;BME280;65788;52.284;20.890;2023-02-13T01:02:17;102046.17;;;17.26;34.18
76827;BME280;65788;52.284;20.890;2023-02-13T01:04:47;102053.55;;;17.26;34.19
76827;BME280;65788;52.284;20.890;2023-02-13T01:07:14;102055.25;;;17.28;34.19
76827;BME280;65788;52.284;20.890;2023-02-13T01:09:41;102050.71;;;17.27;34.20
76827;BME280;65788;52.284;20.890;2023-02-13T01:12:09;102049.98;;;17.25;34.25
76827;BME280;65788;52.284;20.890;2023-02-13T01:14:36;102047.70;;;17.26;34.25
76827;BME280;65788;52.284;20.890;2023-02-13T01:17:03;102044.48;;;17.28;34.22
76827;BME280;65788;52.284;20.890;2023-02-13T01:19:30;102044.83;;;17.25;34.30
76827;BME280;65788;52.284;20.890;2023-02-13T01:21:57;102041.09;;;17.24;34.30
76827;BME280;65788;52.284;20.890;2023-02-13T01:24:24;102041.85;;;17.23;34.32
76827;BME280;65788;52.284;20.890;2023-02-13T01:26:55;102038.48;;;17.23;34.31
76827;BME280;65788;52.284;20.890;2023-02-13T01:29:22;102037.33;;;17.26;34.29
76827;BME280;65788;52.284;20.890;2023-02-13T01:31:49;102037.10;;;17.23;34.34
76827;BME280;65788;52.284;20.890;2023-02-13T01:34:16;102029.39;;;17.24;34.32
76827;BME280;65788;52.284;20.890;2023-02-13T01:36:44;102030.05;;;17.22;34.38
76827;BME280;65788;52.284;20.890;2023-02-13T01:39:11;102032.57;;;17.24;34.36
76827;BME280;65788;52.284;20.890;2023-02-13T01:41:39;102036.63;;;17.24;34.36
76827;BME280;65788;52.284;20.890;2023-02-13T01:47:15;102031.64;;;17.24;34.37
76827;BME280;65788;52.284;20.890;2023-02-13T01:49:45;102027.86;;;17.23;34.42
76827;BME280;65788;52.284;20.890;2023-02-13T01:52:16;102024.92;;;17.21;34.43
76827;BME280;65788;52.284;20.890;2023-02-13T01:54:44;102031.25;;;17.22;34.41
76827;BME280;65788;52.284;20.890;2023-02-13T01:57:19;102029.52;;;17.23;34.42
76827;BME280;65788;52.284;20.890;2023-02-13T01:59:56;102031.73;;;17.21;34.47
76827;BME280;65788;52.284;20.890;2023-02-13T02:02:27;102033.43;;;17.21;34.47
76827;BME280;65788;52.284;20.890;2023-02-13T02:04:56;102035.92;;;17.20;34.49
76827;BME280;65788;52.284;20.890;2023-02-13T02:07:26;102035.61;;;17.20;34.51
76827;BME280;65788;52.284;20.890;2023-02-13T02:09:58;102037.39;;;17.24;34.46
76827;BME280;65788;52.284;20.890;2023-02-13T02:12:39;102034.73;;;17.21;34.49
76827;BME280;65788;52.284;20.890;2023-02-13T02:15:09;102041.63;;;17.20;34.51
76827;BME280;65788;52.284;20.890;2023-02-13T02:17:37;102037.55;;;17.22;34.48
76827;BME280;65788;52.284;20.890;2023-02-13T02:31:57;102036.13;;;17.18;34.58
76827;BME280;65788;52.284;20.890;2023-02-13T02:40:10;102031.06;;;17.17;34.62
76827;BME280;65788;52.284;20.890;2023-02-13T02:45:29;102035.00;;;17.17;34.64
76827;BME280;65788;52.284;20.890;2023-02-13T02:51:00;102039.89;;;17.16;34.67
76827;BME280;65788;52.284;20.890;2023-02-13T02:53:38;102038.43;;;17.14;34.69
76827;BME280;65788;52.284;20.890;2023-02-13T02:56:25;102041.16;;;17.16;34.66
76827;BME280;65788;52.284;20.890;2023-02-13T02:59:00;102042.77;;;17.15;34.71
76827;BME280;65788;52.284;20.890;2023-02-13T03:01:51;102048.73;;;17.14;34.71
76827;BME280;65788;52.284;20.890;2023-02-13T03:04:45;102048.23;;;17.16;34.70
76827;BME280;65788;52.284;20.890;2023-02-13T03:07:32;102051.88;;;17.14;34.73
76827;BME280;65788;52.284;20.890;2023-02-13T03:10:03;102052.50;;;17.15;34.73
76827;BME280;65788;52.284;20.890;2023-02-13T03:13:09;102053.62;;;17.15;34.73
76827;BME280;65788;52.284;20.890;2023-02-13T03:15:51;102051.44;;;17.15;34.73
76827;BME280;65788;52.284;20.890;2023-02-13T03:18:43;102052.77;;;17.15;34.75
76827;BME280;65788;52.284;20.890;2023-02-13T03:21:50;102052.60;;;17.15;34.76
76827;BME280;65788;52.284;20.890;2023-02-13T03:24:47;102050.21;;;17.13;34.79
76827;BME280;65788;52.284;20.890;2023-02-13T03:27:19;102044.06;;;17.12;34.81
76827;BME280;65788;52.284;20.890;2023-02-13T03:39:22;102039.49;;;17.11;34.83
76827;BME280;65788;52.284;20.890;2023-02-13T03:41:43;102039.05;;;17.10;34.87
76827;BME280;65788;52.284;20.890;2023-02-13T03:47:14;102038.90;;;17.10;34.90
76827;BME280;65788;52.284;20.890;2023-02-13T03:49:47;102039.42;;;17.10;34.89
76827;BME280;65788;52.284;20.890;2023-02-13T03:55:15;102039.51;;;17.09;34.92
76827;BME280;65788;52.284;20.890;2023-02-13T03:58:08;102037.64;;;17.10;34.93
76827;BME280;65788;52.284;20.890;2023-02-13T04:00:57;102036.38;;;17.09;34.95
76827;BME280;65788;52.284;20.890;2023-02-13T04:03:58;102037.20;;;17.08;34.98
76827;BME280;65788;52.284;20.890;2023-02-13T04:06:33;102026.58;;;17.08;34.99
76827;BME280;65788;52.284;20.890;2023-02-13T04:09:04;102033.05;;;17.09;34.96
76827;BME280;65788;52.284;20.890;2023-02-13T04:16:50;102032.83;;;17.06;35.03
76827;BME280;65788;52.284;20.890;2023-02-13T04:19:18;102029.61;;;17.07;35.03
76827;BME280;65788;52.284;20.890;2023-02-13T04:21:54;102032.73;;;17.05;35.05
76827;BME280;65788;52.284;20.890;2023-02-13T04:24:23;102034.42;;;17.06;35.06
76827;BME280;65788;52.284;20.890;2023-02-13T04:26:51;102033.00;;;17.04;35.09
76827;BME280;65788;52.284;20.890;2023-02-13T04:29:21;102035.84;;;17.05;35.07
76827;BME280;65788;52.284;20.890;2023-02-13T04:31:48;102036.18;;;17.06;35.07
76827;BME280;65788;52.284;20.890;2023-02-13T04:34:15;102042.75;;;17.06;35.08
76827;BME280;65788;52.284;20.890;2023-02-13T04:36:42;102044.34;;;17.05;35.08
76827;BME280;65788;52.284;20.890;2023-02-13T04:39:10;102043.94;;;17.06;35.07
76827;BME280;65788;52.284;20.890;2023-02-13T04:41:37;102043.96;;;17.04;35.12
76827;BME280;65788;52.284;20.890;2023-02-13T04:44:04;102046.72;;;17.02;35.17
76827;BME280;65788;52.284;20.890;2023-02-13T04:46:32;102044.41;;;17.03;35.15
76827;BME280;65788;52.284;20.890;2023-02-13T04:48:59;102041.67;;;17.03;35.16
76827;BME280;65788;52.284;20.890;2023-02-13T04:51:26;102043.15;;;17.03;35.17
76827;BME280;65788;52.284;20.890;2023-02-13T04:53:53;102043.86;;;17.03;35.16
76827;BME280;65788;52.284;20.890;2023-02-13T04:56:20;102042.11;;;17.00;35.21
76827;BME280;65788;52.284;20.890;2023-02-13T04:58:47;102042.29;;;17.02;35.18
76827;BME280;65788;52.284;20.890;2023-02-13T05:01:17;102039.42;;;17.01;35.20
76827;BME280;65788;52.284;20.890;2023-02-13T05:03:44;102034.84;;;17.03;35.17
76827;BME280;65788;52.284;20.890;2023-02-13T05:06:15;102034.48;;;17.15;34.97
76827;BME280;65788;52.284;20.890;2023-02-13T05:08:43;102033.25;;;17.18;34.95
76827;BME280;65788;52.284;20.890;2023-02-13T05:11:10;102037.88;;;17.26;34.83
76827;BME280;65788;52.284;20.890;2023-02-13T05:13:37;102031.33;;;17.37;34.69
76827;BME280;65788;52.284;20.890;2023-02-13T05:16:05;102031.12;;;17.47;34.54
76827;BME280;65788;52.284;20.890;2023-02-13T05:18:35;102028.14;;;17.57;34.40
76827;BME280;65788;52.284;20.890;2023-02-13T05:21:01;102030.44;;;17.68;34.24
76827;BME280;65788;52.284;20.890;2023-02-13T05:23:48;102035.16;;;17.79;34.11
76827;BME280;65788;52.284;20.890;2023-02-13T05:26:15;102033.36;;;17.88;33.97
76827;BME280;65788;52.284;20.890;2023-02-13T05:28:43;102036.05;;;17.94;33.90
76827;BME280;65788;52.284;20.890;2023-02-13T05:31:29;102036.33;;;17.98;33.86
76827;BME280;65788;52.284;20.890;2023-02-13T05:33:57;102035.52;;;18.01;33.85
76827;BME280;65788;52.284;20.890;2023-02-13T05:36:24;102035.16;;;17.99;33.91
76827;BME280;65788;52.284;20.890;2023-02-13T05:38:54;102033.64;;;17.99;33.92
76827;BME280;65788;52.284;20.890;2023-02-13T05:41:21;102037.73;;;17.98;33.97
76827;BME280;65788;52.284;20.890;2023-02-13T05:43:48;102037.55;;;17.98;33.98
76827;BME280;65788;52.284;20.890;2023-02-13T05:46:15;102042.52;;;17.94;34.06
76827;BME280;65788;52.284;20.890;2023-02-13T05:48:42;102038.84;;;17.92;34.12
76827;BME280;65788;52.284;20.890;2023-02-13T05:51:10;102048.74;;;17.90;34.18
76827;BME280;65788;52.284;20.890;2023-02-13T05:53:37;102049.15;;;17.86;34.23
76827;BME280;65788;52.284;20.890;2023-02-13T05:56:05;102052.92;;;17.85;34.26
76827;BME280;65788;52.284;20.890;2023-02-13T05:58:33;102053.70;;;17.84;34.30
76827;BME280;65788;52.284;20.890;2023-02-13T06:01:00;102054.62;;;17.82;34.33
76827;BME280;65788;52.284;20.890;2023-02-13T06:03:30;102054.81;;;17.80;34.37
76827;BME280;65788;52.284;20.890;2023-02-13T06:05:58;102057.80;;;17.80;34.38
76827;BME280;65788;52.284;20.890;2023-02-13T06:08:25;102057.77;;;17.79;34.39
76827;BME280;65788;52.284;20.890;2023-02-13T06:10:52;102060.36;;;17.77;34.40
76827;BME280;65788;52.284;20.890;2023-02-13T06:13:19;102058.48;;;17.73;34.44
76827;BME280;65788;52.284;20.890;2023-02-13T06:15:46;102056.70;;;17.71;34.49
76827;BME280;65788;52.284;20.890;2023-02-13T06:18:14;102057.36;;;17.67;34.56
76827;BME280;65788;52.284;20.890;2023-02-13T06:20:41;102051.00;;;17.66;34.57
76827;BME280;65788;52.284;20.890;2023-02-13T06:23:07;102046.45;;;17.65;34.56
76827;BME280;65788;52.284;20.890;2023-02-13T06:25:35;102050.79;;;17.61;34.64
76827;BME280;65788;52.284;20.890;2023-02-13T06:28:03;102055.29;;;17.61;34.65
76827;BME280;65788;52.284;20.890;2023-02-13T06:30:31;102055.79;;;17.60;34.65
76827;BME280;65788;52.284;20.890;2023-02-13T06:32:58;102054.75;;;17.57;34.67
76827;BME280;65788;52.284;20.890;2023-02-13T06:35:28;102055.95;;;17.56;34.67
76827;BME280;65788;52.284;20.890;2023-02-13T06:37:55;102057.91;;;17.55;34.69
76827;BME280;65788;52.284;20.890;2023-02-13T06:40:22;102065.69;;;17.53;34.73
76827;BME280;65788;52.284;20.890;2023-02-13T06:42:50;102064.89;;;17.54;34.71
76827;BME280;65788;52.284;20.890;2023-02-13T06:45:17;102066.14;;;17.53;34.71
76827;BME280;65788;52.284;20.890;2023-02-13T06:47:46;102068.23;;;17.52;34.71
76827;BME280;65788;52.284;20.890;2023-02-13T06:50:15;102064.64;;;17.51;34.73
76827;BME280;65788;52.284;20.890;2023-02-13T06:52:48;102066.78;;;17.52;34.70
76827;BME280;65788;52.284;20.890;2023-02-13T06:55:16;102067.30;;;17.50;34.70
76827;BME280;65788;52.284;20.890;2023-02-13T06:57:44;102064.82;;;17.48;34.75
76827;BME280;65788;52.284;20.890;2023-02-13T07:00:14;102070.41;;;17.47;34.76
76827;BME280;65788;52.284;20.890;2023-02-13T07:02:46;102075.57;;;17.48;34.76
76827;BME280;65788;52.284;20.890;2023-02-13T07:05:14;102069.09;;;17.44;34.81
76827;BME280;65788;52.284;20.890;2023-02-13T07:07:42;102064.88;;;17.46;34.77
76827;BME280;65788;52.284;20.890;2023-02-13T07:10:11;102062.58;;;17.45;34.77
76827;BME280;65788;52.284;20.890;2023-02-13T07:12:39;102056.89;;;17.46;34.73
76827;BME280;65788;52.284;20.890;2023-02-13T07:15:09;102060.27;;;17.46;34.74
76827;BME280;65788;52.284;20.890;2023-02-13T07:17:37;102065.92;;;17.48;34.69
76827;BME280;65788;52.284;20.890;2023-02-13T07:20:08;102068.05;;;17.47;34.69
76827;BME280;65788;52.284;20.890;2023-02-13T07:22:35;102067.75;;;17.50;34.65
76827;BME280;65788;52.284;20.890;2023-02-13T07:25:04;102067.92;;;17.48;34.68
76827;BME280;65788;52.284;20.890;2023-02-13T07:27:31;102068.02;;;17.51;34.63
76827;BME280;65788;52.284;20.890;2023-02-13T07:29:59;102070.65;;;17.49;34.66
76827;BME280;65788;52.284;20.890;2023-02-13T07:32:26;102065.74;;;17.48;34.67
76827;BME280;65788;52.284;20.890;2023-02-13T07:34:53;102074.23;;;17.50;34.63
76827;BME280;65788;52.284;20.890;2023-02-13T07:37:20;102076.52;;;17.54;34.56
76827;BME280;65788;52.284;20.890;2023-02-13T07:39:47;102078.13;;;17.51;34.63
76827;BME280;65788;52.284;20.890;2023-02-13T07:42:14;102079.23;;;17.49;34.66
76827;BME280;65788;52.284;20.890;2023-02-13T07:44:41;102082.87;;;17.50;34.66
76827;BME280;65788;52.284;20.890;2023-02-13T07:47:08;102080.52;;;17.46;34.70
76827;BME280;65788;52.284;20.890;2023-02-13T07:49:35;102082.62;;;17.47;34.67
76827;BME280;65788;52.284;20.890;2023-02-13T07:52:04;102084.48;;;17.44;34.75
76827;BME280;65788;52.284;20.890;2023-02-13T07:54:32;102077.58;;;17.39;34.83
76827;BME280;65788;52.284;20.890;2023-02-13T07:56:59;102072.52;;;17.39;34.82
76827;BME280;65788;52.284;20.890;2023-02-13T07:59:26;102070.57;;;17.43;34.79
76827;BME280;65788;52.284;20.890;2023-02-13T08:01:54;102067.01;;;17.41;34.82
76827;BME280;65788;52.284;20.890;2023-02-13T08:04:22;102063.89;;;17.39;34.87
76827;BME280;65788;52.284;20.890;2023-02-13T08:06:49;102068.19;;;17.41;34.86
76827;BME280;65788;52.284;20.890;2023-02-13T08:09:19;102067.79;;;17.39;34.89
76827;BME280;65788;52.284;20.890;2023-02-13T08:12:07;102066.79;;;17.40;34.89
76827;BME280;65788;52.284;20.890;2023-02-13T08:14:35;102070.58;;;17.41;34.90
76827;BME280;65788;52.284;20.890;2023-02-13T08:17:02;102066.25;;;17.42;34.87
76827;BME280;65788;52.284;20.890;2023-02-13T08:19:30;102059.30;;;17.49;34.70
76827;BME280;65788;52.284;20.890;2023-02-13T08:21:57;102057.02;;;17.53;34.64
76827;BME280;65788;52.284;20.890;2023-02-13T08:24:24;102056.77;;;17.59;34.56
76827;BME280;65788;52.284;20.890;2023-02-13T08:26:52;102051.66;;;17.68;34.44
76827;BME280;65788;52.284;20.890;2023-02-13T08:29:18;102050.77;;;17.81;34.25
76827;BME280;65788;52.284;20.890;2023-02-13T08:31:46;102047.69;;;17.95;34.05
76827;BME280;65788;52.284;20.890;2023-02-13T08:34:13;102048.84;;;18.07;33.86
76827;BME280;65788;52.284;20.890;2023-02-13T08:36:40;102051.50;;;18.20;33.70
76827;BME280;65788;52.284;20.890;2023-02-13T08:39:09;102051.59;;;18.31;33.53
76827;BME280;65788;52.284;20.890;2023-02-13T08:41:36;102050.40;;;18.39;33.44
76827;BME280;65788;52.284;20.890;2023-02-13T08:44:03;102053.33;;;18.44;33.38
76827;BME280;65788;52.284;20.890;2023-02-13T08:46:30;102053.56;;;18.47;33.37
76827;BME280;65788;52.284;20.890;2023-02-13T08:48:57;102053.18;;;18.49;33.38
76827;BME280;65788;52.284;20.890;2023-02-13T08:51:25;102053.21;;;18.47;33.45
76827;BME280;65788;52.284;20.890;2023-02-13T08:53:52;102048.86;;;18.41;33.55
76827;BME280;65788;52.284;20.890;2023-02-13T08:56:20;102042.40;;;18.36;33.63
76827;BME280;65788;52.284;20.890;2023-02-13T08:58:48;102044.20;;;18.33;33.71
76827;BME280;65788;52.284;20.890;2023-02-13T09:01:16;102039.63;;;18.31;33.75
76827;BME280;65788;52.284;20.890;2023-02-13T09:03:44;102038.52;;;18.28;33.80
76827;BME280;65788;52.284;20.890;2023-02-13T09:06:11;102044.25;;;18.23;33.90
76827;BME280;65788;52.284;20.890;2023-02-13T09:08:38;102043.91;;;18.18;34.00
76827;BME280;65788;52.284;20.890;2023-02-13T09:11:08;102037.95;;;18.19;34.00
76827;BME280;65788;52.284;20.890;2023-02-13T09:13:38;102038.91;;;18.17;34.02
76827;BME280;65788;52.284;20.890;2023-02-13T09:16:06;102034.91;;;18.15;34.05
76827;BME280;65788;52.284;20.890;2023-02-13T09:18:34;102032.98;;;18.14;34.05
76827;BME280;65788;52.284;20.890;2023-02-13T09:21:06;102033.28;;;18.09;34.13
76827;BME280;65788;52.284;20.890;2023-02-13T09:23:36;102043.34;;;18.05;34.19
76827;BME280;65788;52.284;20.890;2023-02-13T09:26:07;102042.70;;;18.03;34.23
76827;BME280;65788;52.284;20.890;2023-02-13T09:28:34;102044.27;;;18.00;34.27
76827;BME280;65788;52.284;20.890;2023-02-13T09:33:37;102052.30;;;18.03;34.21
76827;BME280;65788;52.284;20.890;2023-02-13T09:36:05;102051.64;;;18.05;34.16
76827;BME280;65788;52.284;20.890;2023-02-13T09:38:33;102049.08;;;18.05;34.17
76827;BME280;65788;52.284;20.890;2023-02-13T09:41:03;102044.96;;;18.05;34.14
76827;BME280;65788;52.284;20.890;2023-02-13T09:43:51;102046.27;;;18.05;34.15
76827;BME280;65788;52.284;20.890;2023-02-13T09:46:22;102041.70;;;18.05;34.14
76827;BME280;65788;52.284;20.890;2023-02-13T09:48:53;102042.66;;;18.03;34.16
76827;BME280;65788;52.284;20.890;2023-02-13T09:51:23;102040.39;;;18.00;34.20
76827;BME280;65788;52.284;20.890;2023-02-13T09:54:00;102036.51;;;17.99;34.23
76827;BME280;65788;52.284;20.890;2023-02-13T09:56:59;102039.48;;;17.97;34.26
76827;BME280;65788;52.284;20.890;2023-02-13T10:02:36;102034.05;;;17.96;34.29
76827;BME280;65788;52.284;20.890;2023-02-13T10:08:09;102039.73;;;17.99;34.22
76827;BME280;65788;52.284;20.890;2023-02-13T10:16:20;102049.85;;;17.97;34.31
76827;BME280;65788;52.284;20.890;2023-02-13T10:19:00;102047.58;;;17.94;34.36
76827;BME280;65788;52.284;20.890;2023-02-13T10:21:33;102053.20;;;17.86;34.51
76827;BME280;65788;52.284;20.890;2023-02-13T10:24:20;102053.95;;;17.81;34.60
76827;BME280;65788;52.284;20.890;2023-02-13T10:26:55;102058.35;;;17.80;34.64
76827;BME280;65788;52.284;20.890;2023-02-13T10:29:38;102059.42;;;17.80;34.63
76827;BME280;65788;52.284;20.890;2023-02-13T10:35:28;102051.39;;;17.76;34.72
76827;BME280;65788;52.284;20.890;2023-02-13T10:37:58;102048.91;;;17.77;34.73
76827;BME280;65788;52.284;20.890;2023-02-13T10:40:37;102039.63;;;17.76;34.75
76827;BME280;65788;52.284;20.890;2023-02-13T10:43:08;102031.83;;;17.72;34.79
76827;BME280;65788;52.284;20.890;2023-02-13T10:51:29;102019.23;;;17.84;34.59
76827;BME280;65788;52.284;20.890;2023-02-13T10:54:23;102011.77;;;17.87;34.56
76827;BME280;65788;52.284;20.890;2023-02-13T10:57:07;102011.45;;;17.83;34.63
76827;BME280;65788;52.284;20.890;2023-02-13T11:04:54;102024.08;;;17.86;34.59
76827;BME280;65788;52.284;20.890;2023-02-13T11:07:25;102023.40;;;17.80;34.69
76827;BME280;65788;52.284;20.890;2023-02-13T11:10:00;102026.15;;;17.82;34.68
76827;BME280;65788;52.284;20.890;2023-02-13T11:12:31;102017.38;;;17.80;34.74
76827;BME280;65788;52.284;20.890;2023-02-13T11:15:02;102009.82;;;17.78;34.78
76827;BME280;65788;52.284;20.890;2023-02-13T11:17:33;102007.04;;;17.78;34.79
76827;BME280;65788;52.284;20.890;2023-02-13T11:20:22;102002.80;;;17.78;34.75
76827;BME280;65788;52.284;20.890;2023-02-13T11:22:52;101999.71;;;17.78;34.81
76827;BME280;65788;52.284;20.890;2023-02-13T11:25:22;101996.67;;;17.78;34.82
76827;BME280;65788;52.284;20.890;2023-02-13T11:28:06;101996.25;;;17.85;34.73
76827;BME280;65788;52.284;20.890;2023-02-13T11:30:35;101990.77;;;17.95;34.59
76827;BME280;65788;52.284;20.890;2023-02-13T11:33:27;101989.77;;;18.07;34.41
76827;BME280;65788;52.284;20.890;2023-02-13T11:36:15;101996.00;;;18.22;34.19
76827;BME280;65788;52.284;20.890;2023-02-13T11:38:43;101996.73;;;18.32;34.07
76827;BME280;65788;52.284;20.890;2023-02-13T11:41:12;101995.59;;;18.40;33.98
76827;BME280;65788;52.284;20.890;2023-02-13T11:43:47;101988.87;;;18.47;33.90
76827;BME280;65788;52.284;20.890;2023-02-13T11:46:23;101984.95;;;18.51;33.89
76827;BME280;65788;52.284;20.890;2023-02-13T11:49:04;101993.80;;;18.56;33.87
76827;BME280;65788;52.284;20.890;2023-02-13T11:51:38;101988.52;;;18.60;33.85
76827;BME280;65788;52.284;20.890;2023-02-13T11:56:53;101988.90;;;18.60;33.93
76827;BME280;65788;52.284;20.890;2023-02-13T11:59:23;101984.82;;;18.57;33.99
76827;BME280;65788;52.284;20.890;2023-02-13T12:02:20;101984.24;;;18.54;34.04
76827;BME280;65788;52.284;20.890;2023-02-13T12:04:50;101978.20;;;18.50;34.12
76827;BME280;65788;52.284;20.890;2023-02-13T12:07:27;101969.38;;;18.51;34.10
76827;BME280;65788;52.284;20.890;2023-02-13T12:10:22;101964.14;;;18.53;34.07
76827;BME280;65788;52.284;20.890;2023-02-13T12:13:14;101955.10;;;18.53;34.05
76827;BME280;65788;52.284;20.890;2023-02-13T12:15:52;101948.13;;;18.53;34.06
76827;BME280;65788;52.284;20.890;2023-02-13T12:18:30;101939.95;;;18.53;34.03
76827;BME280;65788;52.284;20.890;2023-02-13T12:23:56;101941.25;;;18.52;34.04
76827;BME280;65788;52.284;20.890;2023-02-13T12:26:32;101946.05;;;18.45;34.13
76827;BME280;65788;52.284;20.890;2023-02-13T12:29:31;101942.27;;;18.46;34.13
76827;BME280;65788;52.284;20.890;2023-02-13T12:38:19;101949.08;;;18.33;34.31
76827;BME280;65788;52.284;20.890;2023-02-13T12:43:35;101942.20;;;18.22;34.47
76827;BME280;65788;52.284;20.890;2023-02-13T12:46:26;101939.63;;;18.19;34.53
76827;BME280;65788;52.284;20.890;2023-02-13T12:52:35;101932.35;;;18.18;34.53
76827;BME280;65788;52.284;20.890;2023-02-13T12:57:49;101925.29;;;18.18;34.51
76827;BME280;65788;52.284;20.890;2023-02-13T13:03:20;101914.86;;;18.18;34.52
76827;BME280;65788;52.284;20.890;2023-02-13T13:17:19;101893.70;;;18.15;34.58
76827;BME280;65788;52.284;20.890;2023-02-13T13:28:02;101882.10;;;18.18;34.52
76827;BME280;65788;52.284;20.890;2023-02-13T13:30:34;101883.59;;;18.15;34.55
76827;BME280;65788;52.284;20.890;2023-02-13T13:33:21;101876.73;;;18.07;34.68
76827;BME280;65788;52.284;20.890;2023-02-13T13:41:21;101878.94;;;17.96;34.89
76827;BME280;65788;52.284;20.890;2023-02-13T13:44:04;101877.64;;;17.95;34.92
76827;BME280;65788;52.284;20.890;2023-02-13T13:51:42;101878.09;;;17.90;34.95
76827;BME280;65788;52.284;20.890;2023-02-13T13:59:54;101866.41;;;17.83;35.08
76827;BME280;65788;52.284;20.890;2023-02-13T14:07:38;101869.33;;;17.77;35.14
76827;BME280;65788;52.284;20.890;2023-02-13T14:13:06;101884.28;;;17.94;34.86
76827;BME280;65788;52.284;20.890;2023-02-13T14:21:00;101877.31;;;18.26;34.42
76827;BME280;65788;52.284;20.890;2023-02-13T14:26:36;101853.58;;;18.43;34.20
76827;BME280;65788;52.284;20.890;2023-02-13T14:31:42;101858.39;;;18.52;34.10
76827;BME280;65788;52.284;20.890;2023-02-13T14:34:19;101860.74;;;18.57;34.04
76827;BME280;65788;52.284;20.890;2023-02-13T14:37:46;101869.09;;;18.58;34.03
76827;BME280;65788;52.284;20.890;2023-02-13T14:42:38;101878.25;;;18.56;34.09
76827;BME280;65788;52.284;20.890;2023-02-13T14:45:16;101873.80;;;18.53;34.15
76827;BME280;65788;52.284;20.890;2023-02-13T14:47:51;101859.35;;;18.49;34.22
76827;BME280;65788;52.284;20.890;2023-02-13T14:50:48;101859.08;;;18.46;34.28
76827;BME280;65788;52.284;20.890;2023-02-13T14:53:58;101862.67;;;18.41;34.38
76827;BME280;65788;52.284;20.890;2023-02-13T14:56:29;101861.66;;;18.37;34.42
76827;BME280;65788;52.284;20.890;2023-02-13T14:59:15;101864.86;;;18.33;34.47
76827;BME280;65788;52.284;20.890;2023-02-13T15:01:47;101868.05;;;18.29;34.52
76827;BME280;65788;52.284;20.890;2023-02-13T15:04:42;101859.31;;;18.25;34.58
76827;BME280;65788;52.284;20.890;2023-02-13T15:07:17;101857.30;;;18.22;34.62
76827;BME280;65788;52.284;20.890;2023-02-13T15:10:14;101859.20;;;18.20;34.66
76827;BME280;65788;52.284;20.890;2023-02-13T15:12:43;101850.67;;;18.17;34.70
76827;BME280;65788;52.284;20.890;2023-02-13T15:15:37;101836.23;;;18.14;34.73
76827;BME280;65788;52.284;20.890;2023-02-13T15:18:10;101840.31;;;18.12;34.74
76827;BME280;65788;52.284;20.890;2023-02-13T15:20:44;101833.05;;;18.08;34.78
76827;BME280;65788;52.284;20.890;2023-02-13T15:23:22;101835.46;;;18.06;34.80
76827;BME280;65788;52.284;20.890;2023-02-13T15:26:04;101814.63;;;18.03;34.83
76827;BME280;65788;52.284;20.890;2023-02-13T15:28:33;101813.66;;;17.98;34.91
76827;BME280;65788;52.284;20.890;2023-02-13T15:31:06;101813.40;;;17.96;34.92
76827;BME280;65788;52.284;20.890;2023-02-13T15:33:47;101820.27;;;17.96;34.90
76827;BME280;65788;52.284;20.890;2023-02-13T15:36:21;101824.96;;;17.93;34.93
76827;BME280;65788;52.284;20.890;2023-02-13T15:38:59;101824.16;;;17.88;35.01
76827;BME280;65788;52.284;20.890;2023-02-13T15:41:31;101825.73;;;17.86;35.04
76827;BME280;65788;52.284;20.890;2023-02-13T15:43:59;101833.30;;;17.83;35.08